sensor_id;sensor_type;location;lat;lon;timestamp;temperature;humidity
38239;DHT22;24035;48.900;9.188;2023-04-24T00:00:16;10.90;99.90
38239;DHT22;24035;48.900;9.188;2023-04-24T00:02:44;10.90;99.90
38239;DHT22;24035;48.900;9.188;2023-04-24T00:05:17;11.00;1.00
38239;DHT22;24035;48.900;9.188;2023-04-24T00:07:43;11.20;1.00
38239;DHT22;24035;48.900;9.188;2023-04-24T00:10:10;11.20;1.00
38239;DHT22;24035;48.900;9.188;2023-04-24T00:12:36;11.30;1.00
38239;DHT22;24035;48.900;9.188;2023-04-24T00:15:02;11.30;1.00
38239;DHT22;24035;48.900;9.188;2023-04-24T00:17:27;11.30;99.90
38239;DHT22;24035;48.900;9.188;2023-04-24T00:19:53;11.40;99.90
38239;DHT22;24035;48.900;9.188;2023-04-24T00:22:27;11.40;99.90
38239;DHT22;24035;48.900;9.188;2023-04-24T00:24:54;11.50;99.90
38239;DHT22;24035;48.900;9.188;2023-04-24T00:27:20;11.50;99.90
38239;DHT22;24035;48.900;9.188;2023-04-24T00:29:45;11.50;99.90
38239;DHT22;24035;48.900;9.188;2023-04-24T00:32:11;11.50;99.90
38239;DHT22;24035;48.900;9.188;2023-04-24T00:34:37;11.60;99.90
38239;DHT22;24035;48.900;9.188;2023-04-24T00:37:03;11.60;55.60
38239;DHT22;24035;48.900;9.188;2023-04-24T00:39:28;11.60;13.80
38239;DHT22;24035;48.900;9.188;2023-04-24T00:41:54;11.70;1.00
38239;DHT22;24035;48.900;9.188;2023-04-24T00:44:20;11.70;1.00
38239;DHT22;24035;48.900;9.188;2023-04-24T00:46:47;11.70;30.00
38239;DHT22;24035;48.900;9.188;2023-04-24T00:49:18;11.70;1.00
38239;DHT22;24035;48.900;9.188;2023-04-24T00:51:43;11.60;12.00
38239;DHT22;24035;48.900;9.188;2023-04-24T00:54:13;11.60;65.40
38239;DHT22;24035;48.900;9.188;2023-04-24T00:56:40;11.50;42.60
38239;DHT22;24035;48.900;9.188;2023-04-24T00:59:06;11.60;93.50
38239;DHT22;24035;48.900;9.188;2023-04-24T01:01:32;11.60;4.10
38239;DHT22;24035;48.900;9.188;2023-04-24T01:03:59;11.60;1.00
38239;DHT22;24035;48.900;9.188;2023-04-24T01:06:28;11.60;1.10
38239;DHT22;24035;48.900;9.188;2023-04-24T01:08:54;11.60;1.00
38239;DHT22;24035;48.900;9.188;2023-04-24T01:11:21;11.70;1.00
38239;DHT22;24035;48.900;9.188;2023-04-24T01:13:48;11.70;1.00
38239;DHT22;24035;48.900;9.188;2023-04-24T01:16:14;11.70;1.00
38239;DHT22;24035;48.900;9.188;2023-04-24T01:18:40;11.60;1.00
38239;DHT22;24035;48.900;9.188;2023-04-24T01:21:08;11.60;1.00
38239;DHT22;24035;48.900;9.188;2023-04-24T01:23:34;11.60;1.00
38239;DHT22;24035;48.900;9.188;2023-04-24T01:26:00;11.70;1.00
38239;DHT22;24035;48.900;9.188;2023-04-24T01:28:26;11.70;1.00
38239;DHT22;24035;48.900;9.188;2023-04-24T01:30:52;11.60;1.00
38239;DHT22;24035;48.900;9.188;2023-04-24T01:33:18;11.50;1.00
38239;DHT22;24035;48.900;9.188;2023-04-24T01:35:43;11.40;39.90
38239;DHT22;24035;48.900;9.188;2023-04-24T01:38:12;11.40;99.90
38239;DHT22;24035;48.900;9.188;2023-04-24T01:40:38;11.30;99.90
38239;DHT22;24035;48.900;9.188;2023-04-24T01:43:04;11.30;99.90
38239;DHT22;24035;48.900;9.188;2023-04-24T01:45:29;11.30;99.90
38239;DHT22;24035;48.900;9.188;2023-04-24T01:47:55;11.30;99.90
38239;DHT22;24035;48.900;9.188;2023-04-24T01:50:21;11.20;99.90
38239;DHT22;24035;48.900;9.188;2023-04-24T01:52:47;11.20;99.90
38239;DHT22;24035;48.900;9.188;2023-04-24T01:55:13;11.10;99.90
38239;DHT22;24035;48.900;9.188;2023-04-24T01:57:38;11.00;99.90
38239;DHT22;24035;48.900;9.188;2023-04-24T02:00:06;10.90;99.90
38239;DHT22;24035;48.900;9.188;2023-04-24T02:02:32;10.90;99.90
38239;DHT22;24035;48.900;9.188;2023-04-24T02:04:58;10.90;99.90
38239;DHT22;24035;48.900;9.188;2023-04-24T02:07:24;10.90;1.00
38239;DHT22;24035;48.900;9.188;2023-04-24T02:09:49;10.90;1.00
38239;DHT22;24035;48.900;9.188;2023-04-24T02:12:15;10.90;1.00
38239;DHT22;24035;48.900;9.188;2023-04-24T02:14:43;10.80;1.00
38239;DHT22;24035;48.900;9.188;2023-04-24T02:17:09;10.80;1.00
38239;DHT22;24035;48.900;9.188;2023-04-24T02:19:34;10.80;1.00
38239;DHT22;24035;48.900;9.188;2023-04-24T02:22:00;10.70;1.00
38239;DHT22;24035;48.900;9.188;2023-04-24T02:24:26;10.70;1.00
38239;DHT22;24035;48.900;9.188;2023-04-24T02:26:51;10.80;1.00
38239;DHT22;24035;48.900;9.188;2023-04-24T02:29:17;10.90;1.00
38239;DHT22;24035;48.900;9.188;2023-04-24T02:31:43;11.00;1.00
38239;DHT22;24035;48.900;9.188;2023-04-24T02:34:09;11.00;1.00
38239;DHT22;24035;48.900;9.188;2023-04-24T02:36:34;11.10;1.00
38239;DHT22;24035;48.900;9.188;2023-04-24T02:39:00;11.20;99.90
38239;DHT22;24035;48.900;9.188;2023-04-24T02:41:26;11.20;99.90
38239;DHT22;24035;48.900;9.188;2023-04-24T02:44:00;11.20;1.00
38239;DHT22;24035;48.900;9.188;2023-04-24T02:46:26;11.10;46.80
38239;DHT22;24035;48.900;9.188;2023-04-24T02:48:51;11.00;1.00
38239;DHT22;24035;48.900;9.188;2023-04-24T02:51:17;10.90;1.00
38239;DHT22;24035;48.900;9.188;2023-04-24T02:53:43;10.90;99.90
38239;DHT22;24035;48.900;9.188;2023-04-24T02:56:09;10.80;1.00
38239;DHT22;24035;48.900;9.188;2023-04-24T02:58:37;10.70;1.00
38239;DHT22;24035;48.900;9.188;2023-04-24T03:01:03;10.70;1.00
38239;DHT22;24035;48.900;9.188;2023-04-24T03:03:29;10.60;99.90
38239;DHT22;24035;48.900;9.188;2023-04-24T03:05:54;10.50;99.90
38239;DHT22;24035;48.900;9.188;2023-04-24T03:08:22;10.40;1.00
38239;DHT22;24035;48.900;9.188;2023-04-24T03:10:48;10.30;1.00
38239;DHT22;24035;48.900;9.188;2023-04-24T03:13:13;10.20;1.00
38239;DHT22;24035;48.900;9.188;2023-04-24T03:15:40;10.20;1.00
38239;DHT22;24035;48.900;9.188;2023-04-24T03:18:05;10.20;1.00
38239;DHT22;24035;48.900;9.188;2023-04-24T03:20:31;10.10;1.00
38239;DHT22;24035;48.900;9.188;2023-04-24T03:22:57;10.10;1.00
38239;DHT22;24035;48.900;9.188;2023-04-24T03:25:22;10.00;1.00
38239;DHT22;24035;48.900;9.188;2023-04-24T03:27:48;10.00;96.50
38239;DHT22;24035;48.900;9.188;2023-04-24T03:30:14;9.90;99.90
38239;DHT22;24035;48.900;9.188;2023-04-24T03:32:40;9.90;1.00
38239;DHT22;24035;48.900;9.188;2023-04-24T03:35:07;9.80;1.00
38239;DHT22;24035;48.900;9.188;2023-04-24T03:37:33;9.90;1.00
38239;DHT22;24035;48.900;9.188;2023-04-24T03:39:59;9.80;1.00
38239;DHT22;24035;48.900;9.188;2023-04-24T03:42:25;9.80;1.00
38239;DHT22;24035;48.900;9.188;2023-04-24T03:44:50;9.80;1.00
38239;DHT22;24035;48.900;9.188;2023-04-24T03:47:16;9.80;1.00
38239;DHT22;24035;48.900;9.188;2023-04-24T03:49:42;9.80;1.00
38239;DHT22;24035;48.900;9.188;2023-04-24T03:52:07;9.80;1.00
38239;DHT22;24035;48.900;9.188;2023-04-24T03:54:33;9.70;1.00
38239;DHT22;24035;48.900;9.188;2023-04-24T03:56:58;9.70;1.00
38239;DHT22;24035;48.900;9.188;2023-04-24T03:59:24;9.70;1.00
38239;DHT22;24035;48.900;9.188;2023-04-24T04:01:50;9.70;2.30
38239;DHT22;24035;48.900;9.188;2023-04-24T04:04:16;9.70;24.80
38239;DHT22;24035;48.900;9.188;2023-04-24T04:06:42;9.70;99.90
38239;DHT22;24035;48.900;9.188;2023-04-24T04:09:08;9.80;1.00
38239;DHT22;24035;48.900;9.188;2023-04-24T04:11:34;9.80;1.00
38239;DHT22;24035;48.900;9.188;2023-04-24T04:14:01;9.90;61.40
38239;DHT22;24035;48.900;9.188;2023-04-24T04:16:26;10.00;1.00
38239;DHT22;24035;48.900;9.188;2023-04-24T04:18:52;10.00;1.00
38239;DHT22;24035;48.900;9.188;2023-04-24T04:21:18;10.10;1.00
38239;DHT22;24035;48.900;9.188;2023-04-24T04:23:43;10.10;1.00
38239;DHT22;24035;48.900;9.188;2023-04-24T04:26:10;10.10;21.70
38239;DHT22;24035;48.900;9.188;2023-04-24T04:28:36;10.00;1.00
38239;DHT22;24035;48.900;9.188;2023-04-24T04:31:03;9.80;1.00
38239;DHT22;24035;48.900;9.188;2023-04-24T04:33:28;9.60;1.00
38239;DHT22;24035;48.900;9.188;2023-04-24T04:35:54;9.60;1.00
38239;DHT22;24035;48.900;9.188;2023-04-24T04:38:22;9.50;99.90
38239;DHT22;24035;48.900;9.188;2023-04-24T04:40:48;9.50;1.00
38239;DHT22;24035;48.900;9.188;2023-04-24T04:43:14;9.50;1.00
38239;DHT22;24035;48.900;9.188;2023-04-24T04:45:41;9.60;99.90
38239;DHT22;24035;48.900;9.188;2023-04-24T04:48:09;9.60;99.90
38239;DHT22;24035;48.900;9.188;2023-04-24T04:50:35;9.60;99.90
38239;DHT22;24035;48.900;9.188;2023-04-24T04:53:01;9.60;99.90
38239;DHT22;24035;48.900;9.188;2023-04-24T04:55:27;9.60;1.00
38239;DHT22;24035;48.900;9.188;2023-04-24T04:57:52;9.50;99.90
38239;DHT22;24035;48.900;9.188;2023-04-24T05:00:18;9.40;99.90
38239;DHT22;24035;48.900;9.188;2023-04-24T05:02:44;9.40;1.00
38239;DHT22;24035;48.900;9.188;2023-04-24T05:05:10;9.40;1.00
38239;DHT22;24035;48.900;9.188;2023-04-24T05:07:36;9.40;1.00
38239;DHT22;24035;48.900;9.188;2023-04-24T05:10:02;9.40;1.00
38239;DHT22;24035;48.900;9.188;2023-04-24T05:12:28;9.40;1.00
38239;DHT22;24035;48.900;9.188;2023-04-24T05:14:54;9.30;1.00
38239;DHT22;24035;48.900;9.188;2023-04-24T05:17:20;9.30;1.00
38239;DHT22;24035;48.900;9.188;2023-04-24T05:19:46;9.30;1.00
38239;DHT22;24035;48.900;9.188;2023-04-24T05:22:12;9.30;1.00
38239;DHT22;24035;48.900;9.188;2023-04-24T05:24:37;9.40;1.00
38239;DHT22;24035;48.900;9.188;2023-04-24T05:27:04;9.40;1.00
38239;DHT22;24035;48.900;9.188;2023-04-24T05:29:32;9.40;99.90
38239;DHT22;24035;48.900;9.188;2023-04-24T05:31:59;9.40;99.90
38239;DHT22;24035;48.900;9.188;2023-04-24T05:34:25;9.50;96.50
38239;DHT22;24035;48.900;9.188;2023-04-24T05:36:51;9.50;1.00
38239;DHT22;24035;48.900;9.188;2023-04-24T05:39:17;9.60;1.00
38239;DHT22;24035;48.900;9.188;2023-04-24T05:41:43;9.70;1.00
38239;DHT22;24035;48.900;9.188;2023-04-24T05:44:09;9.70;99.90
38239;DHT22;24035;48.900;9.188;2023-04-24T05:46:34;9.60;99.90
38239;DHT22;24035;48.900;9.188;2023-04-24T05:49:00;9.60;99.90
38239;DHT22;24035;48.900;9.188;2023-04-24T05:51:26;9.50;99.90
38239;DHT22;24035;48.900;9.188;2023-04-24T05:53:52;9.40;99.90
38239;DHT22;24035;48.900;9.188;2023-04-24T05:56:18;9.40;1.00
38239;DHT22;24035;48.900;9.188;2023-04-24T05:58:45;9.40;1.00
38239;DHT22;24035;48.900;9.188;2023-04-24T06:01:10;9.60;99.90
38239;DHT22;24035;48.900;9.188;2023-04-24T06:03:38;9.80;20.30
38239;DHT22;24035;48.900;9.188;2023-04-24T06:06:04;10.00;1.00
38239;DHT22;24035;48.900;9.188;2023-04-24T06:08:30;10.20;99.90
38239;DHT22;24035;48.900;9.188;2023-04-24T06:10:56;10.30;1.00
38239;DHT22;24035;48.900;9.188;2023-04-24T06:13:21;10.30;1.00
38239;DHT22;24035;48.900;9.188;2023-04-24T06:15:47;10.20;99.90
38239;DHT22;24035;48.900;9.188;2023-04-24T06:18:13;10.10;99.90
38239;DHT22;24035;48.900;9.188;2023-04-24T06:20:39;10.20;1.00
38239;DHT22;24035;48.900;9.188;2023-04-24T06:23:05;10.40;1.00
38239;DHT22;24035;48.900;9.188;2023-04-24T06:25:30;11.30;48.50
38239;DHT22;24035;48.900;9.188;2023-04-24T06:27:57;12.20;1.00
38239;DHT22;24035;48.900;9.188;2023-04-24T06:30:23;13.60;80.00
38239;DHT22;24035;48.900;9.188;2023-04-24T06:32:49;14.60;99.90
38239;DHT22;24035;48.900;9.188;2023-04-24T06:35:14;15.90;1.00
38239;DHT22;24035;48.900;9.188;2023-04-24T06:37:42;16.00;1.00
38239;DHT22;24035;48.900;9.188;2023-04-24T06:40:08;15.30;1.00
38239;DHT22;24035;48.900;9.188;2023-04-24T06:42:35;14.90;2.60
38239;DHT22;24035;48.900;9.188;2023-04-24T06:45:01;14.20;1.00
38239;DHT22;24035;48.900;9.188;2023-04-24T06:47:27;13.50;99.90
38239;DHT22;24035;48.900;9.188;2023-04-24T06:49:53;13.00;99.90
38239;DHT22;24035;48.900;9.188;2023-04-24T06:52:19;12.80;1.00
38239;DHT22;24035;48.900;9.188;2023-04-24T06:54:45;12.50;99.90
38239;DHT22;24035;48.900;9.188;2023-04-24T06:57:11;12.40;1.00
38239;DHT22;24035;48.900;9.188;2023-04-24T06:59:37;12.70;1.00
38239;DHT22;24035;48.900;9.188;2023-04-24T07:02:02;13.50;1.00
38239;DHT22;24035;48.900;9.188;2023-04-24T07:04:28;13.70;99.90
38239;DHT22;24035;48.900;9.188;2023-04-24T07:06:54;13.80;99.90
38239;DHT22;24035;48.900;9.188;2023-04-24T07:09:22;14.30;99.90
38239;DHT22;24035;48.900;9.188;2023-04-24T07:11:49;14.90;1.00
38239;DHT22;24035;48.900;9.188;2023-04-24T07:14:15;15.80;1.00
38239;DHT22;24035;48.900;9.188;2023-04-24T07:16:41;15.00;1.00
38239;DHT22;24035;48.900;9.188;2023-04-24T07:19:07;14.20;1.00
38239;DHT22;24035;48.900;9.188;2023-04-24T07:21:33;13.40;1.00
38239;DHT22;24035;48.900;9.188;2023-04-24T07:23:59;13.00;1.00
38239;DHT22;24035;48.900;9.188;2023-04-24T07:26:26;12.70;1.00
38239;DHT22;24035;48.900;9.188;2023-04-24T07:28:52;12.60;1.00
38239;DHT22;24035;48.900;9.188;2023-04-24T07:31:18;12.40;1.00
38239;DHT22;24035;48.900;9.188;2023-04-24T07:33:44;12.40;19.30
38239;DHT22;24035;48.900;9.188;2023-04-24T07:36:10;13.10;1.00
38239;DHT22;24035;48.900;9.188;2023-04-24T07:38:41;13.60;1.00
38239;DHT22;24035;48.900;9.188;2023-04-24T07:41:07;14.20;1.00
38239;DHT22;24035;48.900;9.188;2023-04-24T07:43:33;14.00;1.00
38239;DHT22;24035;48.900;9.188;2023-04-24T07:45:59;13.70;1.00
38239;DHT22;24035;48.900;9.188;2023-04-24T07:48:25;13.40;1.00
38239;DHT22;24035;48.900;9.188;2023-04-24T07:50:52;13.30;1.00
38239;DHT22;24035;48.900;9.188;2023-04-24T07:53:18;13.20;1.00
38239;DHT22;24035;48.900;9.188;2023-04-24T07:55:44;12.90;1.00
38239;DHT22;24035;48.900;9.188;2023-04-24T07:58:09;12.80;1.00
38239;DHT22;24035;48.900;9.188;2023-04-24T08:00:35;12.80;1.00
38239;DHT22;24035;48.900;9.188;2023-04-24T08:03:01;13.30;1.00
38239;DHT22;24035;48.900;9.188;2023-04-24T08:05:27;13.60;1.00
38239;DHT22;24035;48.900;9.188;2023-04-24T08:07:54;12.80;1.00
38239;DHT22;24035;48.900;9.188;2023-04-24T08:10:22;12.70;1.00
38239;DHT22;24035;48.900;9.188;2023-04-24T08:12:47;12.60;1.00
38239;DHT22;24035;48.900;9.188;2023-04-24T08:15:13;12.60;1.00
38239;DHT22;24035;48.900;9.188;2023-04-24T08:17:39;13.00;1.00
38239;DHT22;24035;48.900;9.188;2023-04-24T08:20:05;13.10;1.00
38239;DHT22;24035;48.900;9.188;2023-04-24T08:22:35;13.30;1.00
38239;DHT22;24035;48.900;9.188;2023-04-24T08:25:01;13.30;1.00
38239;DHT22;24035;48.900;9.188;2023-04-24T08:27:27;13.10;1.00
38239;DHT22;24035;48.900;9.188;2023-04-24T08:29:53;13.20;99.90
38239;DHT22;24035;48.900;9.188;2023-04-24T08:32:19;13.30;99.90
38239;DHT22;24035;48.900;9.188;2023-04-24T08:34:45;13.40;99.90
38239;DHT22;24035;48.900;9.188;2023-04-24T08:37:11;13.00;99.90
38239;DHT22;24035;48.900;9.188;2023-04-24T08:39:37;13.20;99.90
38239;DHT22;24035;48.900;9.188;2023-04-24T08:42:04;13.30;99.90
38239;DHT22;24035;48.900;9.188;2023-04-24T08:44:33;13.70;99.90
38239;DHT22;24035;48.900;9.188;2023-04-24T08:47:01;14.00;99.90
38239;DHT22;24035;48.900;9.188;2023-04-24T08:49:28;13.90;99.90
38239;DHT22;24035;48.900;9.188;2023-04-24T08:51:54;14.10;99.90
38239;DHT22;24035;48.900;9.188;2023-04-24T08:54:21;14.40;99.90
38239;DHT22;24035;48.900;9.188;2023-04-24T08:56:48;14.30;99.90
38239;DHT22;24035;48.900;9.188;2023-04-24T08:59:16;14.60;99.90
38239;DHT22;24035;48.900;9.188;2023-04-24T09:01:44;14.70;99.90
38239;DHT22;24035;48.900;9.188;2023-04-24T09:04:10;14.50;99.90
38239;DHT22;24035;48.900;9.188;2023-04-24T09:06:38;14.40;99.90
38239;DHT22;24035;48.900;9.188;2023-04-24T09:09:04;14.60;99.90
38239;DHT22;24035;48.900;9.188;2023-04-24T09:11:34;14.80;99.90
38239;DHT22;24035;48.900;9.188;2023-04-24T09:14:00;15.20;99.90
38239;DHT22;24035;48.900;9.188;2023-04-24T09:16:27;15.30;99.90
38239;DHT22;24035;48.900;9.188;2023-04-24T09:18:53;15.20;99.90
38239;DHT22;24035;48.900;9.188;2023-04-24T09:21:21;14.60;99.90
38239;DHT22;24035;48.900;9.188;2023-04-24T09:23:57;14.10;99.90
38239;DHT22;24035;48.900;9.188;2023-04-24T09:26:24;13.50;99.90
38239;DHT22;24035;48.900;9.188;2023-04-24T09:28:49;13.30;99.90
38239;DHT22;24035;48.900;9.188;2023-04-24T09:31:19;13.10;99.90
38239;DHT22;24035;48.900;9.188;2023-04-24T09:34:03;12.90;99.90
38239;DHT22;24035;48.900;9.188;2023-04-24T09:36:33;12.80;99.90
38239;DHT22;24035;48.900;9.188;2023-04-24T09:39:04;12.80;99.90
38239;DHT22;24035;48.900;9.188;2023-04-24T09:41:32;13.20;99.90
38239;DHT22;24035;48.900;9.188;2023-04-24T09:44:14;13.90;99.90
38239;DHT22;24035;48.900;9.188;2023-04-24T09:46:41;14.40;99.90
38239;DHT22;24035;48.900;9.188;2023-04-24T09:49:09;14.40;99.90
38239;DHT22;24035;48.900;9.188;2023-04-24T09:51:37;14.20;99.90
38239;DHT22;24035;48.900;9.188;2023-04-24T09:54:05;14.20;99.90
38239;DHT22;24035;48.900;9.188;2023-04-24T09:56:36;14.20;99.90
38239;DHT22;24035;48.900;9.188;2023-04-24T09:59:05;13.60;99.90
38239;DHT22;24035;48.900;9.188;2023-04-24T10:01:32;13.30;99.90
38239;DHT22;24035;48.900;9.188;2023-04-24T10:03:58;13.00;99.90
38239;DHT22;24035;48.900;9.188;2023-04-24T10:06:32;13.00;99.90
38239;DHT22;24035;48.900;9.188;2023-04-24T10:08:58;13.30;99.90
38239;DHT22;24035;48.900;9.188;2023-04-24T10:11:26;13.60;99.90
38239;DHT22;24035;48.900;9.188;2023-04-24T10:13:52;13.50;99.90
38239;DHT22;24035;48.900;9.188;2023-04-24T10:16:20;13.40;99.90
38239;DHT22;24035;48.900;9.188;2023-04-24T10:18:48;13.30;99.90
38239;DHT22;24035;48.900;9.188;2023-04-24T10:21:15;13.30;99.90
38239;DHT22;24035;48.900;9.188;2023-04-24T10:23:41;13.30;99.90
38239;DHT22;24035;48.900;9.188;2023-04-24T10:26:09;13.10;99.90
38239;DHT22;24035;48.900;9.188;2023-04-24T10:28:36;13.10;99.90
38239;DHT22;24035;48.900;9.188;2023-04-24T10:31:02;13.10;99.90
38239;DHT22;24035;48.900;9.188;2023-04-24T10:33:29;13.40;99.90
38239;DHT22;24035;48.900;9.188;2023-04-24T10:35:56;13.40;99.90
38239;DHT22;24035;48.900;9.188;2023-04-24T10:38:25;13.30;99.90
38239;DHT22;24035;48.900;9.188;2023-04-24T10:40:58;12.90;99.90
38239;DHT22;24035;48.900;9.188;2023-04-24T10:43:33;12.50;99.90
38239;DHT22;24035;48.900;9.188;2023-04-24T10:46:03;12.20;99.90
38239;DHT22;24035;48.900;9.188;2023-04-24T10:48:30;12.20;99.90
38239;DHT22;24035;48.900;9.188;2023-04-24T10:50:56;12.40;99.90
38239;DHT22;24035;48.900;9.188;2023-04-24T10:53:27;12.50;99.90
38239;DHT22;24035;48.900;9.188;2023-04-24T10:58:42;12.80;99.90
38239;DHT22;24035;48.900;9.188;2023-04-24T11:01:30;12.90;99.90
38239;DHT22;24035;48.900;9.188;2023-04-24T11:03:58;13.20;99.90
38239;DHT22;24035;48.900;9.188;2023-04-24T11:06:34;13.70;99.90
38239;DHT22;24035;48.900;9.188;2023-04-24T11:09:11;13.70;99.90
38239;DHT22;24035;48.900;9.188;2023-04-24T11:11:45;13.90;99.90
38239;DHT22;24035;48.900;9.188;2023-04-24T11:14:14;14.00;99.90
38239;DHT22;24035;48.900;9.188;2023-04-24T11:16:53;13.90;99.90
38239;DHT22;24035;48.900;9.188;2023-04-24T11:19:24;13.80;99.90
38239;DHT22;24035;48.900;9.188;2023-04-24T11:22:01;13.90;99.90
38239;DHT22;24035;48.900;9.188;2023-04-24T11:32:28;14.70;99.90
38239;DHT22;24035;48.900;9.188;2023-04-24T11:34:56;14.60;99.90
38239;DHT22;24035;48.900;9.188;2023-04-24T11:37:24;14.10;99.90
38239;DHT22;24035;48.900;9.188;2023-04-24T11:39:51;14.10;99.90
38239;DHT22;24035;48.900;9.188;2023-04-24T11:42:18;14.00;99.90
38239;DHT22;24035;48.900;9.188;2023-04-24T11:44:46;14.30;99.90
38239;DHT22;24035;48.900;9.188;2023-04-24T11:47:12;14.40;99.90
38239;DHT22;24035;48.900;9.188;2023-04-24T11:49:38;14.50;99.90
38239;DHT22;24035;48.900;9.188;2023-04-24T11:52:04;14.50;99.90
38239;DHT22;24035;48.900;9.188;2023-04-24T11:54:30;14.40;99.90
38239;DHT22;24035;48.900;9.188;2023-04-24T11:56:56;14.60;99.90
38239;DHT22;24035;48.900;9.188;2023-04-24T11:59:22;14.80;99.90
38239;DHT22;24035;48.900;9.188;2023-04-24T12:01:48;15.10;99.90
38239;DHT22;24035;48.900;9.188;2023-04-24T12:04:16;14.80;99.90
38239;DHT22;24035;48.900;9.188;2023-04-24T12:07:03;14.40;99.90
38239;DHT22;24035;48.900;9.188;2023-04-24T12:09:57;14.10;99.90
38239;DHT22;24035;48.900;9.188;2023-04-24T12:12:26;14.00;99.90
38239;DHT22;24035;48.900;9.188;2023-04-24T12:14:56;13.90;99.90
38239;DHT22;24035;48.900;9.188;2023-04-24T12:17:30;14.10;99.90
38239;DHT22;24035;48.900;9.188;2023-04-24T12:20:04;14.40;99.90
38239;DHT22;24035;48.900;9.188;2023-04-24T12:22:48;14.30;99.90
38239;DHT22;24035;48.900;9.188;2023-04-24T12:25:15;14.10;99.90
38239;DHT22;24035;48.900;9.188;2023-04-24T12:27:42;14.00;99.90
38239;DHT22;24035;48.900;9.188;2023-04-24T12:30:14;13.90;99.90
38239;DHT22;24035;48.900;9.188;2023-04-24T12:32:42;13.80;99.90
38239;DHT22;24035;48.900;9.188;2023-04-24T12:35:08;13.50;99.90
38239;DHT22;24035;48.900;9.188;2023-04-24T12:37:34;13.20;99.90
38239;DHT22;24035;48.900;9.188;2023-04-24T12:40:08;13.10;99.90
38239;DHT22;24035;48.900;9.188;2023-04-24T12:42:36;13.00;99.90
38239;DHT22;24035;48.900;9.188;2023-04-24T12:45:07;12.80;99.90
38239;DHT22;24035;48.900;9.188;2023-04-24T12:47:34;12.70;99.90
38239;DHT22;24035;48.900;9.188;2023-04-24T12:50:01;13.00;99.90
38239;DHT22;24035;48.900;9.188;2023-04-24T12:52:28;13.50;99.90
38239;DHT22;24035;48.900;9.188;2023-04-24T12:54:57;13.50;99.90
38239;DHT22;24035;48.900;9.188;2023-04-24T12:57:23;13.70;99.90
38239;DHT22;24035;48.900;9.188;2023-04-24T12:59:49;13.90;99.90
38239;DHT22;24035;48.900;9.188;2023-04-24T13:02:15;14.00;99.90
38239;DHT22;24035;48.900;9.188;2023-04-24T13:04:50;14.10;99.90
38239;DHT22;24035;48.900;9.188;2023-04-24T13:07:16;14.10;99.90
38239;DHT22;24035;48.900;9.188;2023-04-24T13:09:43;14.20;99.90
38239;DHT22;24035;48.900;9.188;2023-04-24T13:12:09;14.60;99.90
38239;DHT22;24035;48.900;9.188;2023-04-24T13:14:36;14.80;99.90
38239;DHT22;24035;48.900;9.188;2023-04-24T13:17:02;14.50;99.90
38239;DHT22;24035;48.900;9.188;2023-04-24T13:19:28;14.10;99.90
38239;DHT22;24035;48.900;9.188;2023-04-24T13:21:56;14.00;99.90
38239;DHT22;24035;48.900;9.188;2023-04-24T13:24:23;13.70;99.90
38239;DHT22;24035;48.900;9.188;2023-04-24T13:26:53;13.20;99.90
38239;DHT22;24035;48.900;9.188;2023-04-24T13:29:19;13.20;99.90
38239;DHT22;24035;48.900;9.188;2023-04-24T13:31:46;13.20;99.90
38239;DHT22;24035;48.900;9.188;2023-04-24T13:34:13;13.30;99.90
38239;DHT22;24035;48.900;9.188;2023-04-24T13:36:39;13.70;99.90
38239;DHT22;24035;48.900;9.188;2023-04-24T13:39:05;14.30;99.90
38239;DHT22;24035;48.900;9.188;2023-04-24T13:41:33;14.20;99.90
38239;DHT22;24035;48.900;9.188;2023-04-24T13:43:58;14.30;99.90
38239;DHT22;24035;48.900;9.188;2023-04-24T13:46:24;14.40;99.90
38239;DHT22;24035;48.900;9.188;2023-04-24T13:48:50;14.10;99.90
38239;DHT22;24035;48.900;9.188;2023-04-24T13:51:16;14.30;99.90
38239;DHT22;24035;48.900;9.188;2023-04-24T13:53:43;14.40;99.90
38239;DHT22;24035;48.900;9.188;2023-04-24T13:56:09;14.50;99.90
38239;DHT22;24035;48.900;9.188;2023-04-24T13:58:35;14.50;99.90
38239;DHT22;24035;48.900;9.188;2023-04-24T14:01:02;14.30;99.90
38239;DHT22;24035;48.900;9.188;2023-04-24T14:03:29;14.30;99.90
38239;DHT22;24035;48.900;9.188;2023-04-24T14:05:55;14.20;99.90
38239;DHT22;24035;48.900;9.188;2023-04-24T14:08:21;14.30;99.90
38239;DHT22;24035;48.900;9.188;2023-04-24T14:10:47;14.40;99.90
38239;DHT22;24035;48.900;9.188;2023-04-24T14:13:13;14.40;99.90
38239;DHT22;24035;48.900;9.188;2023-04-24T14:15:39;14.30;99.90
38239;DHT22;24035;48.900;9.188;2023-04-24T14:18:05;14.30;99.90
38239;DHT22;24035;48.900;9.188;2023-04-24T14:20:30;14.30;99.90
38239;DHT22;24035;48.900;9.188;2023-04-24T14:22:56;14.00;99.90
38239;DHT22;24035;48.900;9.188;2023-04-24T14:25:24;13.80;99.90
38239;DHT22;24035;48.900;9.188;2023-04-24T14:27:50;13.70;99.90
38239;DHT22;24035;48.900;9.188;2023-04-24T14:30:17;13.60;99.90
38239;DHT22;24035;48.900;9.188;2023-04-24T14:32:42;13.60;99.90
38239;DHT22;24035;48.900;9.188;2023-04-24T14:35:08;13.70;99.90
38239;DHT22;24035;48.900;9.188;2023-04-24T14:37:34;13.80;99.90
38239;DHT22;24035;48.900;9.188;2023-04-24T14:40:01;14.10;99.90
38239;DHT22;24035;48.900;9.188;2023-04-24T14:42:27;14.00;99.90
38239;DHT22;24035;48.900;9.188;2023-04-24T14:44:54;13.70;99.90
38239;DHT22;24035;48.900;9.188;2023-04-24T14:47:20;13.60;99.90
38239;DHT22;24035;48.900;9.188;2023-04-24T14:49:48;13.80;99.90
38239;DHT22;24035;48.900;9.188;2023-04-24T14:52:14;14.10;99.90
38239;DHT22;24035;48.900;9.188;2023-04-24T14:54:39;14.20;99.90
38239;DHT22;24035;48.900;9.188;2023-04-24T14:57:05;14.40;99.90
38239;DHT22;24035;48.900;9.188;2023-04-24T14:59:31;14.20;99.90
38239;DHT22;24035;48.900;9.188;2023-04-24T15:01:57;14.10;99.90
38239;DHT22;24035;48.900;9.188;2023-04-24T15:04:27;14.00;99.90
38239;DHT22;24035;48.900;9.188;2023-04-24T15:06:54;14.10;99.90
38239;DHT22;24035;48.900;9.188;2023-04-24T15:09:23;14.20;99.90
38239;DHT22;24035;48.900;9.188;2023-04-24T15:11:50;14.10;99.90
38239;DHT22;24035;48.900;9.188;2023-04-24T15:14:17;14.00;99.90
38239;DHT22;24035;48.900;9.188;2023-04-24T15:16:43;13.90;99.90
38239;DHT22;24035;48.900;9.188;2023-04-24T15:19:09;13.90;99.90
38239;DHT22;24035;48.900;9.188;2023-04-24T15:21:36;13.80;99.90
38239;DHT22;24035;48.900;9.188;2023-04-24T15:24:02;13.80;99.90
38239;DHT22;24035;48.900;9.188;2023-04-24T15:26:28;13.80;99.90
38239;DHT22;24035;48.900;9.188;2023-04-24T15:28:54;13.80;99.90
38239;DHT22;24035;48.900;9.188;2023-04-24T15:31:20;13.80;99.90
38239;DHT22;24035;48.900;9.188;2023-04-24T15:33:48;13.50;99.90
38239;DHT22;24035;48.900;9.188;2023-04-24T15:36:15;13.60;99.90
38239;DHT22;24035;48.900;9.188;2023-04-24T15:38:42;13.80;99.90
38239;DHT22;24035;48.900;9.188;2023-04-24T15:41:07;14.20;99.90
38239;DHT22;24035;48.900;9.188;2023-04-24T15:43:33;14.30;99.90
38239;DHT22;24035;48.900;9.188;2023-04-24T15:46:00;14.20;99.90